createdAt,value
2022-10-21T00:00:37.741Z,54.95
2022-10-21T00:02:37.975Z,54.79
2022-10-21T00:03:37.724Z,54.48
2022-10-21T00:04:37.734Z,54.28
2022-10-21T00:05:37.723Z,53.47
2022-10-21T00:06:37.731Z,54.13
2022-10-21T00:07:37.706Z,55.33
2022-10-21T00:08:37.780Z,53.95
2022-10-21T00:09:37.690Z,54.31
2022-10-21T00:11:37.726Z,56.89
2022-10-21T00:12:38.089Z,56.02
2022-10-21T00:13:37.665Z,56.39
2022-10-21T00:14:37.752Z,56.61
2022-10-21T00:15:37.651Z,54.20
2022-10-21T00:16:37.664Z,54.13
2022-10-21T00:17:37.637Z,55.45
2022-10-21T00:18:37.641Z,60.63
2022-10-21T00:19:37.629Z,57.25
2022-10-21T00:20:39.714Z,54.96
2022-10-21T00:21:37.619Z,55.45
2022-10-21T00:22:37.958Z,55.10
2022-10-21T00:23:37.593Z,55.49
2022-10-21T00:24:37.592Z,53.40
2022-10-21T00:25:37.586Z,51.08
2022-10-21T00:26:38.551Z,54.98
2022-10-21T00:27:37.873Z,59.58
2022-10-21T00:28:37.553Z,54.57
2022-10-21T00:29:37.551Z,53.82
2022-10-21T00:30:37.572Z,54.54
2022-10-21T00:31:37.555Z,56.55
2022-10-21T00:32:37.764Z,58.03
2022-10-21T00:33:37.548Z,56.18
2022-10-21T00:34:37.526Z,55.91
2022-10-21T00:35:37.515Z,53.98
2022-10-21T00:36:37.503Z,52.62
2022-10-21T00:37:37.754Z,53.52
2022-10-21T00:38:37.527Z,54.31
2022-10-21T00:39:37.499Z,54.38
2022-10-21T00:40:37.486Z,56.22
2022-10-21T00:41:37.477Z,53.64
2022-10-21T00:42:39.600Z,55.20
2022-10-21T00:43:37.465Z,57.30
2022-10-21T00:44:37.462Z,58.08
2022-10-21T00:45:37.443Z,56.41
2022-10-21T00:46:37.449Z,53.94
2022-10-21T00:47:37.511Z,54.70
2022-10-21T00:48:37.429Z,52.56
2022-10-21T00:49:37.845Z,55.29
2022-10-21T00:50:40.194Z,56.02
2022-10-21T00:51:38.402Z,60.73
2022-10-21T00:52:37.773Z,52.77
2022-10-21T00:53:37.829Z,56.12
2022-10-21T00:54:37.414Z,59.53
2022-10-21T00:55:37.411Z,57.19
2022-10-21T00:56:37.378Z,53.27
2022-10-21T00:57:37.747Z,54.15
2022-10-21T00:58:37.363Z,55.68
2022-10-21T00:59:37.350Z,59.95
2022-10-21T01:00:37.402Z,56.58
2022-10-21T01:01:37.437Z,56.18
2022-10-21T01:02:37.331Z,59.67
2022-10-21T01:03:37.319Z,60.19
2022-10-21T01:04:37.322Z,56.68
2022-10-21T01:05:37.350Z,54.46
2022-10-21T01:06:37.745Z,53.12
2022-10-21T01:07:40.316Z,53.41
2022-10-21T01:08:37.406Z,51.24
2022-10-21T01:09:37.276Z,54.90
2022-10-21T01:10:37.301Z,53.55
2022-10-21T01:11:37.266Z,54.67
2022-10-21T01:12:37.263Z,53.78
2022-10-21T01:13:37.256Z,52.72
2022-10-21T01:14:37.242Z,51.88
2022-10-21T01:15:37.254Z,54.13
2022-10-21T01:16:37.270Z,54.86
2022-10-21T01:17:44.935Z,54.51
2022-10-21T01:18:38.232Z,56.21
2022-10-21T01:19:37.220Z,55.82
2022-10-21T01:20:37.207Z,55.50
2022-10-21T01:21:38.311Z,55.96
2022-10-21T01:22:37.199Z,58.66
2022-10-21T01:23:37.185Z,55.14
2022-10-21T01:24:37.187Z,57.85
2022-10-21T01:25:37.181Z,57.46
2022-10-21T01:26:37.206Z,53.66
2022-10-21T01:27:37.439Z,54.67
2022-10-21T01:28:37.152Z,52.75
2022-10-21T01:29:37.143Z,53.61
2022-10-21T01:30:37.149Z,54.89
2022-10-21T01:31:37.149Z,53.60
2022-10-21T01:32:37.147Z,53.10
2022-10-21T01:33:37.768Z,53.51
2022-10-21T01:34:37.110Z,55.51
2022-10-21T01:35:37.124Z,55.14
2022-10-21T01:36:37.096Z,53.69
2022-10-21T01:37:37.525Z,53.95
2022-10-21T01:38:37.110Z,53.27
2022-10-21T01:39:37.081Z,53.76
2022-10-21T01:40:37.088Z,54.64
2022-10-21T01:41:37.065Z,60.23
2022-10-21T01:42:37.323Z,55.63
2022-10-21T01:43:37.059Z,59.60
2022-10-21T01:44:37.054Z,52.24
2022-10-21T01:45:37.044Z,53.41
2022-10-21T01:46:37.023Z,52.45
2022-10-21T01:47:37.028Z,51.92
2022-10-21T01:48:37.021Z,51.78
2022-10-21T01:49:37.027Z,52.88
2022-10-21T01:50:37.678Z,51.87
2022-10-21T01:51:37.006Z,52.48
2022-10-21T01:52:37.303Z,54.10
2022-10-21T01:53:36.979Z,58.20
2022-10-21T01:54:36.982Z,52.80
2022-10-21T01:55:36.992Z,52.48
2022-10-21T01:56:36.969Z,53.39
2022-10-21T01:57:36.962Z,51.38
2022-10-21T01:58:36.966Z,53.32
2022-10-21T01:59:36.945Z,51.48
2022-10-21T02:00:36.939Z,52.49
2022-10-21T02:01:36.943Z,52.20
2022-10-21T02:02:37.454Z,53.42
2022-10-21T02:03:36.965Z,50.10
2022-10-21T02:04:36.910Z,50.89
2022-10-21T02:05:36.906Z,52.26
2022-10-21T02:06:37.416Z,52.59
2022-10-21T02:07:36.892Z,54.05
2022-10-21T02:08:36.936Z,53.46
2022-10-21T02:09:36.881Z,53.38
2022-10-21T02:10:36.932Z,53.57
2022-10-21T02:11:37.201Z,54.34
2022-10-21T02:12:37.222Z,51.07
2022-10-21T02:13:36.890Z,53.53
2022-10-21T02:14:36.875Z,54.52
2022-10-21T02:15:36.834Z,53.58
2022-10-21T02:16:37.329Z,52.65
2022-10-21T02:17:36.827Z,53.90
2022-10-21T02:18:36.811Z,55.62
2022-10-21T02:19:36.834Z,60.23
2022-10-21T02:20:36.811Z,52.57
2022-10-21T02:21:36.807Z,53.01
2022-10-21T02:22:37.214Z,52.82
2022-10-21T02:23:36.783Z,51.87
2022-10-21T02:24:36.780Z,52.51
2022-10-21T02:25:36.768Z,53.15
2022-10-21T02:26:36.780Z,52.04
2022-10-21T02:27:36.760Z,54.74
2022-10-21T02:28:36.820Z,58.55
2022-10-21T02:29:36.745Z,52.10
2022-10-21T02:30:36.754Z,49.81
2022-10-21T02:31:36.733Z,48.85
2022-10-21T02:32:37.182Z,51.21
2022-10-21T02:33:37.099Z,51.54
2022-10-21T02:34:36.713Z,51.85
2022-10-21T02:35:36.698Z,50.91
2022-10-21T02:36:36.696Z,48.09
2022-10-21T02:37:36.753Z,49.20
2022-10-21T02:38:36.685Z,48.16
2022-10-21T02:39:36.905Z,50.59
2022-10-21T02:40:36.662Z,51.30
2022-10-21T02:41:36.662Z,50.58
2022-10-21T02:42:37.139Z,51.80
2022-10-21T02:43:36.675Z,50.10
2022-10-21T02:44:36.646Z,52.79
2022-10-21T02:45:36.630Z,51.76
2022-10-21T02:46:36.659Z,51.60
2022-10-21T02:47:36.927Z,52.84
2022-10-21T02:48:36.613Z,51.74
2022-10-21T02:49:37.016Z,52.07
2022-10-21T02:50:36.609Z,52.65
2022-10-21T02:51:36.602Z,51.89
2022-10-21T02:52:36.591Z,49.63
2022-10-21T02:53:36.597Z,50.71
2022-10-21T02:54:36.579Z,57.51
2022-10-21T02:55:36.585Z,50.86
2022-10-21T02:56:36.565Z,50.03
2022-10-21T02:57:36.926Z,51.69
2022-10-21T02:58:36.547Z,50.61
2022-10-21T02:59:36.532Z,51.51
2022-10-21T03:00:36.530Z,50.45
2022-10-21T03:01:37.179Z,55.91
2022-10-21T03:02:36.539Z,51.17
2022-10-21T03:03:37.188Z,51.87
2022-10-21T03:04:36.513Z,53.38
2022-10-21T03:05:37.128Z,50.78
2022-10-21T03:06:36.491Z,49.06
2022-10-21T03:07:36.815Z,49.91
2022-10-21T03:08:36.492Z,51.66
2022-10-21T03:09:36.475Z,53.18
2022-10-21T03:10:36.463Z,54.00
2022-10-21T03:11:37.597Z,51.88
2022-10-21T03:12:36.445Z,55.05
2022-10-21T03:13:36.563Z,53.13
2022-10-21T03:14:36.429Z,51.65
2022-10-21T03:15:36.442Z,53.76
2022-10-21T03:16:36.433Z,53.95
2022-10-21T03:17:37.802Z,55.41
2022-10-21T03:18:36.446Z,54.38
2022-10-21T03:19:36.394Z,57.19
2022-10-21T03:20:36.394Z,55.82
2022-10-21T03:21:36.387Z,55.18
2022-10-21T03:22:36.377Z,54.87
2022-10-21T03:23:36.376Z,55.14
2022-10-21T03:24:36.372Z,58.00
2022-10-21T03:25:36.380Z,51.21
2022-10-21T03:26:36.375Z,52.86
2022-10-21T03:27:36.352Z,51.69
2022-10-21T03:28:36.362Z,53.30
2022-10-21T03:29:36.331Z,52.03
2022-10-21T03:30:36.357Z,53.57
2022-10-21T03:31:36.333Z,53.66
2022-10-21T03:32:36.508Z,53.77
2022-10-21T03:33:36.313Z,53.56
2022-10-21T03:34:36.724Z,54.77
2022-10-21T03:35:36.306Z,55.14
2022-10-21T03:36:36.289Z,55.60
2022-10-21T03:37:36.278Z,59.65
2022-10-21T03:38:36.276Z,56.43
2022-10-21T03:39:36.282Z,56.78
2022-10-21T03:40:36.253Z,57.64
2022-10-21T03:41:36.257Z,57.40
2022-10-21T03:42:36.700Z,57.53
2022-10-21T03:43:36.241Z,56.80
2022-10-21T03:44:36.237Z,56.44
2022-10-21T03:45:36.232Z,57.66
2022-10-21T03:46:36.221Z,55.54
2022-10-21T03:47:36.210Z,56.87
2022-10-21T03:48:36.317Z,57.16
2022-10-21T03:49:36.269Z,56.06
2022-10-21T03:50:36.210Z,56.36
2022-10-21T03:51:36.184Z,56.35
2022-10-21T03:52:36.528Z,57.94
2022-10-21T03:53:43.270Z,56.34
2022-10-21T03:54:37.179Z,57.78
2022-10-21T03:55:36.494Z,57.94
2022-10-21T03:56:36.145Z,58.18
2022-10-21T03:57:36.152Z,58.96
2022-10-21T03:58:36.147Z,56.69
2022-10-21T03:59:36.183Z,56.41
2022-10-21T04:00:36.160Z,55.95
2022-10-21T04:01:36.256Z,54.86
2022-10-21T04:02:36.426Z,54.42
2022-10-21T04:03:36.117Z,56.61
2022-10-21T04:04:36.093Z,55.24
2022-10-21T04:05:36.079Z,55.19
2022-10-21T04:06:36.105Z,54.20
2022-10-21T04:07:36.084Z,55.55
2022-10-21T04:08:36.127Z,59.90
2022-10-21T04:09:36.059Z,57.00
2022-10-21T04:10:36.084Z,57.98
2022-10-21T04:11:36.131Z,56.24
2022-10-21T04:12:36.272Z,55.94
2022-10-21T04:13:36.044Z,55.35
2022-10-21T04:14:36.027Z,55.95
2022-10-21T04:15:36.026Z,56.55
2022-10-21T04:16:36.022Z,56.49
2022-10-21T04:17:36.006Z,56.33
2022-10-21T04:18:36.651Z,57.24
2022-10-21T04:19:35.987Z,56.69
2022-10-21T04:20:35.980Z,56.06
2022-10-21T04:21:35.978Z,57.01
2022-10-21T04:22:36.316Z,55.40
2022-10-21T04:23:35.984Z,58.91
2022-10-21T04:24:35.964Z,58.57
2022-10-21T04:25:35.946Z,57.53
2022-10-21T04:26:35.949Z,55.70
2022-10-21T04:27:35.932Z,55.96
2022-10-21T04:28:35.939Z,58.54
2022-10-21T04:29:39.977Z,56.39
2022-10-21T04:30:35.916Z,56.71
2022-10-21T04:31:35.899Z,57.43
2022-10-21T04:32:36.167Z,56.00
2022-10-21T04:33:35.963Z,56.62
2022-10-21T04:34:35.888Z,56.01
2022-10-21T04:35:35.898Z,56.21
2022-10-21T04:36:35.873Z,55.68
2022-10-21T04:37:35.871Z,54.13
2022-10-21T04:38:35.875Z,55.03
2022-10-21T04:39:35.948Z,56.82
2022-10-21T04:40:35.862Z,59.02
2022-10-21T04:41:35.831Z,59.47
2022-10-21T04:42:35.835Z,57.68
2022-10-21T04:43:35.826Z,56.13
2022-10-21T04:44:35.831Z,56.11
2022-10-21T04:45:35.820Z,58.33
2022-10-21T04:46:35.806Z,57.92
2022-10-21T04:47:35.982Z,58.47
2022-10-21T04:48:35.792Z,57.64
2022-10-21T04:49:35.795Z,54.27
2022-10-21T04:50:36.486Z,56.61
2022-10-21T04:51:35.785Z,57.79
2022-10-21T04:52:36.107Z,60.13
2022-10-21T04:53:35.757Z,59.00
2022-10-21T04:54:35.781Z,58.56
2022-10-21T04:55:35.739Z,58.25
2022-10-21T04:56:35.753Z,57.00
2022-10-21T04:57:35.736Z,55.98
2022-10-21T04:58:35.742Z,56.30
2022-10-21T04:59:35.719Z,57.26
2022-10-21T05:00:35.789Z,58.49
2022-10-21T05:01:35.704Z,56.61
2022-10-21T05:02:35.757Z,56.57
2022-10-21T05:03:35.697Z,57.10
2022-10-21T05:04:35.675Z,57.90
2022-10-21T05:05:35.680Z,57.12
2022-10-21T05:06:35.664Z,56.67
2022-10-21T05:07:35.655Z,56.79
2022-10-21T05:08:36.457Z,55.80
2022-10-21T05:09:35.644Z,56.34
2022-10-21T05:10:35.664Z,56.47
2022-10-21T05:11:35.644Z,58.29
2022-10-21T05:13:35.624Z,57.10
2022-10-21T05:14:35.612Z,55.98
2022-10-21T05:15:35.615Z,57.10
2022-10-21T05:16:35.606Z,57.26
2022-10-21T05:17:35.825Z,57.71
2022-10-21T05:18:35.597Z,60.40
2022-10-21T05:19:35.578Z,56.23
2022-10-21T05:20:35.591Z,57.24
2022-10-21T05:22:35.643Z,56.55
2022-10-21T05:23:35.557Z,58.93
2022-10-21T05:24:35.554Z,58.99
2022-10-21T05:25:35.555Z,58.64
2022-10-21T05:26:35.569Z,56.08
2022-10-21T05:27:35.535Z,57.84
2022-10-21T05:28:35.540Z,58.19
2022-10-21T05:29:35.518Z,57.77
2022-10-21T05:30:35.600Z,58.83
2022-10-21T05:31:35.521Z,57.03
2022-10-21T05:32:35.651Z,57.15
2022-10-21T05:33:35.494Z,58.33
2022-10-21T05:34:35.479Z,57.06
2022-10-21T05:35:35.471Z,58.88
2022-10-21T05:36:35.464Z,56.27
2022-10-21T05:37:35.464Z,56.37
2022-10-21T05:38:35.459Z,64.00
2022-10-21T05:39:35.470Z,56.40
2022-10-21T05:40:36.174Z,59.86
2022-10-21T05:41:35.424Z,58.37
2022-10-21T05:42:35.594Z,59.64
2022-10-21T05:43:35.414Z,57.61
2022-10-21T05:44:35.399Z,57.82
2022-10-21T05:45:35.654Z,59.39
2022-10-21T05:46:35.383Z,58.85
2022-10-21T05:47:35.376Z,65.90
2022-10-21T05:48:35.412Z,59.33
2022-10-21T05:49:35.364Z,58.53
2022-10-21T05:50:35.623Z,57.84
2022-10-21T05:51:35.363Z,61.37
2022-10-21T05:52:35.468Z,58.74
2022-10-21T05:53:35.346Z,58.09
2022-10-21T05:54:35.329Z,56.68
2022-10-21T05:55:35.882Z,59.17
2022-10-21T05:56:35.326Z,59.60
2022-10-21T05:57:35.309Z,56.83
2022-10-21T05:58:35.342Z,60.53
2022-10-21T05:59:35.308Z,60.09
2022-10-21T06:00:35.486Z,62.67
2022-10-21T06:01:35.728Z,57.68
2022-10-21T06:02:35.468Z,56.69
2022-10-21T06:03:35.314Z,57.66
2022-10-21T06:04:37.995Z,58.36
2022-10-21T06:05:35.264Z,58.56
2022-10-21T06:06:35.253Z,58.50
2022-10-21T06:07:35.243Z,66.01
2022-10-21T06:08:35.294Z,59.44
2022-10-21T06:09:35.231Z,59.62
2022-10-21T06:10:35.238Z,60.39
2022-10-21T06:11:35.222Z,57.31
2022-10-21T06:12:35.204Z,59.27
2022-10-21T06:13:35.210Z,59.50
2022-10-21T06:14:35.219Z,58.41
2022-10-21T06:15:35.193Z,58.87
2022-10-21T06:16:35.202Z,58.50
2022-10-21T06:17:35.171Z,59.18
2022-10-21T06:18:35.224Z,57.85
2022-10-21T06:19:35.163Z,57.80
2022-10-21T06:20:35.152Z,57.02
2022-10-21T06:21:35.152Z,57.92
2022-10-21T06:22:35.177Z,57.59
2022-10-21T06:23:35.139Z,56.79
2022-10-21T06:24:35.124Z,64.85
2022-10-21T06:25:35.133Z,57.57
2022-10-21T06:26:36.916Z,57.71
2022-10-21T06:27:35.140Z,58.77
2022-10-21T06:28:35.112Z,57.67
2022-10-21T06:29:35.115Z,59.00
2022-10-21T06:30:35.111Z,58.37
2022-10-21T06:31:35.088Z,58.35
2022-10-21T06:32:35.068Z,58.89
2022-10-21T06:33:35.082Z,59.42
2022-10-21T06:34:35.064Z,59.27
2022-10-21T06:35:35.071Z,58.05
2022-10-21T06:36:35.044Z,58.94
2022-10-21T06:37:35.150Z,57.07
2022-10-21T06:38:35.037Z,57.67
2022-10-21T06:39:35.080Z,55.03
2022-10-21T06:40:35.020Z,54.79
2022-10-21T06:41:35.011Z,55.94
2022-10-21T06:42:35.001Z,56.66
2022-10-21T06:43:35.001Z,56.49
2022-10-21T06:44:34.982Z,56.57
2022-10-21T06:45:34.996Z,56.60
2022-10-21T06:46:34.994Z,57.60
2022-10-21T06:47:34.983Z,59.30
2022-10-21T06:48:34.964Z,60.06
2022-10-21T06:49:34.968Z,58.87
2022-10-21T06:50:34.974Z,57.09
2022-10-21T06:51:34.939Z,56.25
2022-10-21T06:52:34.925Z,55.94
2022-10-21T06:53:38.101Z,56.00
2022-10-21T06:54:34.918Z,57.48
2022-10-21T06:55:34.914Z,54.95
2022-10-21T06:56:35.584Z,57.80
2022-10-21T06:57:34.935Z,55.29
2022-10-21T06:58:34.882Z,54.27
2022-10-21T06:59:34.874Z,55.00
2022-10-21T07:00:34.881Z,56.39
2022-10-21T07:01:48.419Z,54.94
2022-10-21T07:02:36.246Z,54.59
2022-10-21T07:03:34.854Z,56.17
2022-10-21T07:04:34.840Z,56.77
2022-10-21T07:05:34.836Z,55.74
2022-10-21T07:06:35.834Z,56.66
2022-10-21T07:07:34.820Z,56.36
2022-10-21T07:08:46.781Z,55.18
2022-10-21T07:09:35.926Z,59.26
2022-10-21T07:10:34.813Z,64.23
2022-10-21T07:11:34.830Z,59.18
2022-10-21T07:12:34.795Z,59.82
2022-10-21T07:13:34.775Z,57.98
2022-10-21T07:14:34.778Z,56.96
2022-10-21T07:15:34.772Z,56.00
2022-10-21T07:16:34.792Z,56.25
2022-10-21T07:17:34.770Z,54.68
2022-10-21T07:18:36.984Z,54.71
2022-10-21T07:19:34.737Z,55.07
2022-10-21T07:20:34.790Z,55.34
2022-10-21T07:21:34.732Z,52.39
2022-10-21T07:22:34.738Z,54.88
2022-10-21T07:23:34.925Z,55.31
2022-10-21T07:24:34.701Z,55.64
2022-10-21T07:25:34.694Z,56.90
2022-10-21T07:26:34.702Z,56.22
2022-10-21T07:27:34.701Z,55.70
2022-10-21T07:28:34.671Z,57.37
2022-10-21T07:29:34.671Z,57.05
2022-10-21T07:30:34.663Z,56.74
2022-10-21T07:31:34.646Z,56.15
2022-10-21T07:32:35.422Z,56.65
2022-10-21T07:33:34.634Z,56.79
2022-10-21T07:34:34.768Z,55.75
2022-10-21T07:35:34.617Z,55.60
2022-10-21T07:36:34.634Z,55.65
2022-10-21T07:37:34.656Z,57.10
2022-10-21T07:38:34.596Z,57.23
2022-10-21T07:39:34.599Z,57.30
2022-10-21T07:40:34.588Z,54.43
2022-10-21T07:41:34.576Z,53.76
2022-10-21T07:42:34.581Z,54.91
2022-10-21T07:43:34.569Z,53.68
2022-10-21T07:44:34.569Z,54.42
2022-10-21T07:45:34.558Z,54.38
2022-10-21T07:46:34.546Z,53.95
2022-10-21T07:47:34.550Z,53.10
2022-10-21T07:48:34.551Z,53.94
2022-10-21T07:49:34.546Z,54.28
2022-10-21T07:50:34.538Z,54.70
2022-10-21T07:51:34.515Z,52.94
2022-10-21T07:52:37.136Z,53.63
2022-10-21T07:53:35.504Z,53.82
2022-10-21T07:54:34.491Z,53.48
2022-10-21T07:55:34.474Z,54.76
2022-10-21T07:56:34.485Z,53.24
2022-10-21T07:57:34.466Z,52.87
2022-10-21T07:58:34.455Z,53.17
2022-10-21T07:59:34.963Z,52.95
2022-10-21T08:00:34.471Z,53.84
2022-10-21T08:01:34.605Z,54.20
2022-10-21T08:02:34.447Z,53.87
2022-10-21T08:03:34.422Z,56.41
2022-10-21T08:04:34.420Z,55.81
2022-10-21T08:05:34.406Z,54.55
2022-10-21T08:06:34.422Z,55.55
2022-10-21T08:07:34.402Z,56.55
2022-10-21T08:08:34.458Z,54.07
2022-10-21T08:09:34.417Z,55.24
2022-10-21T08:10:34.392Z,51.66
2022-10-21T08:11:34.362Z,53.07
2022-10-21T08:12:34.355Z,54.42
2022-10-21T08:13:34.368Z,54.76
2022-10-21T08:14:34.407Z,53.14
2022-10-21T08:15:34.342Z,53.80
2022-10-21T08:16:34.447Z,53.95
2022-10-21T08:17:34.329Z,58.54
2022-10-21T08:18:34.332Z,55.20
2022-10-21T08:19:34.311Z,56.62
2022-10-21T08:20:34.299Z,55.70
2022-10-21T08:21:34.295Z,54.92
2022-10-21T08:22:34.311Z,54.88
2022-10-21T08:23:34.278Z,55.79
2022-10-21T08:24:37.438Z,56.30
2022-10-21T08:25:35.253Z,54.22
2022-10-21T08:26:34.248Z,56.07
2022-10-21T08:27:34.250Z,55.82
2022-10-21T08:28:34.253Z,55.73
2022-10-21T08:29:36.432Z,56.16
2022-10-21T08:30:34.224Z,55.49
2022-10-21T08:31:34.220Z,55.95
2022-10-21T08:32:34.247Z,55.76
2022-10-21T08:33:34.231Z,58.00
2022-10-21T08:34:34.202Z,56.85
2022-10-21T08:35:34.188Z,58.36
2022-10-21T08:36:34.186Z,59.81
2022-10-21T08:37:34.181Z,56.72
2022-10-21T08:38:34.194Z,55.80
2022-10-21T08:39:34.197Z,56.55
2022-10-21T08:40:34.151Z,55.94
2022-10-21T08:41:34.149Z,57.64
2022-10-21T08:42:34.168Z,56.58
2022-10-21T08:43:34.140Z,57.33
2022-10-21T08:44:34.122Z,54.02
2022-10-21T08:45:34.122Z,53.16
2022-10-21T08:46:34.111Z,55.31
2022-10-21T08:47:34.097Z,57.34
2022-10-21T08:48:34.098Z,54.24
2022-10-21T08:49:34.822Z,57.33
2022-10-21T08:50:34.110Z,56.91
2022-10-21T08:51:34.077Z,59.12
2022-10-21T08:52:34.059Z,55.73
2022-10-21T08:53:34.066Z,56.66
2022-10-21T08:54:34.556Z,53.27
2022-10-21T08:55:34.042Z,53.12
2022-10-21T08:56:34.045Z,53.04
2022-10-21T08:57:34.025Z,53.79
2022-10-21T08:58:34.057Z,54.04
2022-10-21T08:59:34.023Z,55.43
2022-10-21T09:00:34.009Z,56.78
2022-10-21T09:01:34.005Z,55.65
2022-10-21T09:02:34.037Z,55.00
2022-10-21T09:03:33.985Z,54.43
2022-10-21T09:04:34.000Z,53.72
2022-10-21T09:05:35.036Z,54.13
2022-10-21T09:06:33.964Z,53.51
2022-10-21T09:07:33.986Z,54.29
2022-10-21T09:08:34.018Z,57.95
2022-10-21T09:09:33.947Z,55.70
2022-10-21T09:10:33.965Z,55.56
2022-10-21T09:11:33.934Z,54.54
2022-10-21T09:12:33.926Z,54.50
2022-10-21T09:13:33.928Z,54.71
2022-10-21T09:14:33.909Z,54.03
2022-10-21T09:15:33.912Z,56.89
2022-10-21T09:16:34.671Z,55.90
2022-10-21T09:17:34.373Z,57.48
2022-10-21T09:18:33.876Z,55.89
2022-10-21T09:19:33.879Z,57.71
2022-10-21T09:20:33.865Z,54.80
2022-10-21T09:21:33.891Z,55.81
2022-10-21T09:22:35.574Z,57.01
2022-10-21T09:23:33.867Z,59.68
2022-10-21T09:24:33.849Z,56.37
2022-10-21T09:25:33.831Z,58.15
2022-10-21T09:26:33.856Z,57.63
2022-10-21T09:27:51.306Z,57.39
2022-10-21T09:28:35.561Z,57.93
2022-10-21T09:29:33.804Z,57.14
2022-10-21T09:30:33.811Z,55.37
2022-10-21T09:31:33.785Z,55.88
2022-10-21T09:32:33.789Z,56.03
2022-10-21T09:33:34.027Z,56.67
2022-10-21T09:34:33.769Z,56.91
2022-10-21T09:35:33.752Z,56.58
2022-10-21T09:36:33.751Z,56.90
2022-10-21T09:37:35.497Z,59.05
2022-10-21T09:38:33.727Z,56.73
2022-10-21T09:39:33.827Z,55.58
2022-10-21T09:40:33.719Z,56.24
2022-10-21T09:41:33.715Z,57.58
2022-10-21T09:42:47.039Z,56.92
2022-10-21T09:43:34.691Z,56.17
2022-10-21T09:44:33.723Z,57.62
2022-10-21T09:45:33.676Z,57.49
2022-10-21T09:46:33.674Z,58.60
2022-10-21T09:47:33.672Z,61.09
2022-10-21T09:48:41.749Z,56.53
2022-10-21T09:50:05.776Z,57.66
2022-10-21T09:50:34.650Z,58.33
2022-10-21T09:51:33.644Z,55.35
2022-10-21T09:52:33.631Z,56.38
2022-10-21T09:53:33.628Z,57.35
2022-10-21T09:54:34.268Z,57.52
2022-10-21T09:55:33.609Z,57.56
2022-10-21T09:56:33.606Z,56.79
2022-10-21T09:57:33.598Z,56.18
2022-10-21T09:58:33.617Z,57.23
2022-10-21T09:59:33.755Z,59.44
2022-10-21T10:00:34.054Z,58.47
2022-10-21T10:01:33.664Z,56.39
2022-10-21T10:02:33.580Z,59.12
2022-10-21T10:03:33.554Z,61.22
2022-10-21T10:04:33.554Z,59.12
2022-10-21T10:05:33.536Z,58.22
2022-10-21T10:06:33.525Z,57.47
2022-10-21T10:07:33.531Z,58.07
2022-10-21T10:08:33.710Z,57.04
2022-10-21T10:09:33.518Z,56.97
2022-10-21T10:10:33.514Z,56.04
2022-10-21T10:11:33.752Z,58.05
2022-10-21T10:12:33.544Z,58.25
2022-10-21T10:13:33.476Z,56.25
2022-10-21T10:14:33.494Z,55.12
2022-10-21T10:15:33.469Z,57.68
2022-10-21T10:16:33.468Z,56.87
2022-10-21T10:17:33.454Z,55.20
2022-10-21T10:18:33.444Z,53.01
2022-10-21T10:19:33.496Z,52.29
2022-10-21T10:20:33.424Z,54.55
2022-10-21T10:21:33.440Z,55.85
2022-10-21T10:22:33.417Z,57.60
2022-10-21T10:23:33.405Z,62.92
2022-10-21T10:24:33.405Z,59.04
2022-10-21T10:25:33.393Z,55.86
2022-10-21T10:26:33.430Z,53.77
2022-10-21T10:27:33.385Z,55.17
2022-10-21T10:28:33.432Z,57.28
2022-10-21T10:29:33.375Z,56.90
2022-10-21T10:30:33.479Z,56.57
2022-10-21T10:31:33.353Z,55.73
2022-10-21T10:32:33.367Z,56.80
2022-10-21T10:33:33.356Z,57.38
2022-10-21T10:34:33.328Z,61.53
2022-10-21T10:35:33.325Z,58.32
2022-10-21T10:36:33.334Z,55.96
2022-10-21T10:37:33.361Z,56.64
2022-10-21T10:38:33.304Z,57.16
2022-10-21T10:39:33.288Z,58.87
2022-10-21T10:40:33.293Z,57.03
2022-10-21T10:41:33.637Z,61.39
2022-10-21T10:42:33.277Z,56.93
2022-10-21T10:43:33.266Z,55.17
2022-10-21T10:44:33.277Z,58.54
2022-10-21T10:45:33.272Z,56.65
2022-10-21T10:46:33.365Z,55.57
2022-10-21T10:47:33.251Z,56.62
2022-10-21T10:48:33.236Z,57.48
2022-10-21T10:49:33.226Z,56.25
2022-10-21T10:50:33.215Z,59.59
2022-10-21T10:51:33.206Z,59.19
2022-10-21T10:52:33.729Z,57.65
2022-10-21T10:53:33.204Z,62.70
2022-10-21T10:54:33.238Z,57.35
2022-10-21T10:55:33.188Z,56.79
2022-10-21T10:56:33.171Z,58.18
2022-10-21T10:57:44.152Z,57.17
2022-10-21T10:58:34.168Z,56.44
2022-10-21T10:59:33.162Z,57.76
2022-10-21T11:00:33.153Z,56.93
2022-10-21T11:01:33.267Z,55.69
2022-10-21T11:02:33.270Z,57.94
2022-10-21T11:03:36.829Z,61.32
2022-10-21T11:04:34.116Z,60.02
2022-10-21T11:05:33.111Z,62.11
2022-10-21T11:06:33.154Z,58.76
2022-10-21T11:07:33.119Z,63.02
2022-10-21T11:08:34.308Z,69.39
2022-10-21T11:09:33.137Z,63.36
2022-10-21T11:10:33.415Z,67.27
2022-10-21T11:11:33.067Z,64.77
2022-10-21T11:12:33.067Z,61.16
2022-10-21T11:13:33.061Z,60.06
2022-10-21T11:14:33.077Z,58.12
2022-10-21T11:15:33.061Z,57.62
2022-10-21T11:16:44.859Z,59.22
2022-10-21T11:17:34.027Z,56.33
2022-10-21T11:18:33.148Z,57.79
2022-10-21T11:19:33.019Z,59.39
2022-10-21T11:20:33.025Z,57.53
2022-10-21T11:21:33.018Z,58.09
2022-10-21T11:22:33.021Z,58.60
2022-10-21T11:23:32.983Z,60.45
2022-10-21T11:24:32.988Z,57.63
2022-10-21T11:25:32.979Z,57.82
2022-10-21T11:26:32.968Z,59.00
2022-10-21T11:27:32.962Z,58.54
2022-10-21T11:28:32.965Z,58.08
2022-10-21T11:29:32.941Z,57.61
2022-10-21T11:30:32.939Z,58.21
2022-10-21T11:31:37.335Z,56.73
2022-10-21T11:32:33.928Z,58.73
2022-10-21T11:33:32.951Z,58.75
2022-10-21T11:34:33.025Z,56.61
2022-10-21T11:35:32.911Z,54.57
2022-10-21T11:36:32.892Z,54.25
2022-10-21T11:37:32.892Z,54.66
2022-10-21T11:38:32.886Z,56.46
2022-10-21T11:39:32.896Z,55.52
2022-10-21T11:40:32.902Z,55.45
2022-10-21T11:41:32.871Z,55.45
2022-10-21T11:42:33.004Z,56.26
2022-10-21T11:43:32.852Z,56.16
2022-10-21T11:44:32.847Z,56.74
2022-10-21T11:45:32.838Z,55.30
2022-10-21T11:46:33.101Z,56.07
2022-10-21T11:47:32.828Z,56.77
2022-10-21T11:48:32.809Z,55.74
2022-10-21T11:49:36.387Z,55.04
2022-10-21T11:50:32.928Z,62.40
2022-10-21T11:51:32.797Z,55.73
2022-10-21T11:52:32.791Z,55.90
2022-10-21T11:53:32.781Z,55.50
2022-10-21T11:54:32.778Z,56.37
2022-10-21T11:55:32.759Z,56.07
2022-10-21T11:56:32.757Z,56.57
2022-10-21T11:57:32.756Z,59.57
2022-10-21T11:58:32.738Z,63.07
2022-10-21T11:59:32.737Z,59.46
2022-10-21T12:00:32.718Z,55.99
2022-10-21T12:01:32.854Z,55.73
2022-10-21T12:02:32.815Z,56.90
2022-10-21T12:03:32.727Z,58.28
2022-10-21T12:04:32.699Z,57.72
2022-10-21T12:05:32.694Z,55.69
2022-10-21T12:06:32.794Z,54.90
2022-10-21T12:07:32.679Z,55.29
2022-10-21T12:08:32.661Z,54.40
2022-10-21T12:09:32.660Z,54.22
2022-10-21T12:10:32.667Z,55.31
2022-10-21T12:11:32.644Z,54.62
2022-10-21T12:12:32.810Z,56.83
2022-10-21T12:13:32.633Z,55.84
2022-10-21T12:14:32.616Z,55.07
2022-10-21T12:15:32.619Z,54.92
2022-10-21T12:16:32.599Z,55.20
2022-10-21T12:17:32.662Z,55.75
2022-10-21T12:18:32.593Z,54.94
2022-10-21T12:19:32.581Z,56.33
2022-10-21T12:20:32.584Z,55.79
2022-10-21T12:21:32.580Z,55.51
2022-10-21T12:22:32.678Z,55.49
2022-10-21T12:23:32.571Z,54.33
2022-10-21T12:24:32.549Z,53.45
2022-10-21T12:25:32.536Z,53.75
2022-10-21T12:26:32.617Z,53.47
2022-10-21T12:27:32.545Z,53.25
2022-10-21T12:28:32.527Z,54.28
2022-10-21T12:29:32.547Z,54.49
2022-10-21T12:30:32.514Z,53.90
2022-10-21T12:31:32.496Z,53.86
2022-10-21T12:32:32.491Z,54.20
2022-10-21T12:33:32.506Z,54.25
2022-10-21T12:34:32.471Z,54.31
2022-10-21T12:35:32.548Z,52.49
2022-10-21T12:36:32.453Z,52.76
2022-10-21T12:37:32.583Z,51.86
2022-10-21T12:38:32.560Z,52.70
2022-10-21T12:39:32.434Z,53.27
2022-10-21T12:40:32.436Z,52.35
2022-10-21T12:41:32.430Z,51.81
2022-10-21T12:42:32.418Z,55.99
2022-10-21T12:43:32.413Z,51.86
2022-10-21T12:44:32.419Z,52.94
2022-10-21T12:45:32.397Z,51.80
2022-10-21T12:46:34.919Z,52.42
2022-10-21T12:47:33.389Z,52.77
2022-10-21T12:48:32.370Z,51.93
2022-10-21T12:49:32.363Z,54.29
2022-10-21T12:50:32.358Z,50.27
2022-10-21T12:51:32.347Z,51.95
2022-10-21T12:52:32.348Z,51.28
2022-10-21T12:53:32.340Z,50.14
2022-10-21T12:54:32.351Z,51.09
2022-10-21T12:55:32.325Z,51.52
2022-10-21T12:56:32.309Z,50.64